Time;durP1;ratioP1;P1;durP2;ratioP2;P2;SDS_P1;SDS_P2;PMS_P1;PMS_P2;Temp;Humidity;BMP_temperature;BMP_pressure;BME280_temperature;BME280_humidity;BME280_pressure;Samples;Min_cycle;Max_cycle;Signal;HPM_P1;HPM_P2
2022/08/21 00:00:50;;;;;;;3.22;0.93;;;15.80;99.90;;;;;;5069319;28;20032;-74
2022/08/21 00:03:15;;;;;;;1.13;0.65;;;15.70;99.90;;;;;;5085080;28;20032;-74
2022/08/21 00:05:47;;;;;;;1.08;0.60;;;15.70;99.90;;;;;;5085637;28;20024;-74
2022/08/21 00:08:13;;;;;;;3.50;0.70;;;15.70;99.90;;;;;;5088772;28;20042;-74
2022/08/21 00:10:40;;;;;;;1.85;0.47;;;15.70;99.90;;;;;;5089423;28;20051;-74
2022/08/21 00:13:06;;;;;;;1.95;0.82;;;15.70;99.90;;;;;;5083708;28;20054;-74
2022/08/21 00:15:34;;;;;;;1.08;0.65;;;15.70;99.90;;;;;;5102975;28;20397;-75
2022/08/21 00:18:01;;;;;;;1.52;0.70;;;15.60;99.90;;;;;;5094005;28;20088;-75
2022/08/21 00:20:27;;;;;;;1.55;0.85;;;15.60;99.90;;;;;;5105653;28;20398;-75
2022/08/21 00:22:52;;;;;;;1.95;0.80;;;15.60;99.90;;;;;;5099608;28;20048;-75
2022/08/21 00:25:19;;;;;;;1.20;0.70;;;15.60;99.90;;;;;;5137885;27;20054;-75
2022/08/21 00:27:46;;;;;;;2.25;0.90;;;15.60;99.90;;;;;;5082058;28;20027;-75
2022/08/21 00:30:13;;;;;;;1.20;0.70;;;15.60;99.90;;;;;;5095537;28;20497;-74
2022/08/21 00:32:40;;;;;;;1.08;0.70;;;15.60;99.90;;;;;;5101496;28;20496;-74
2022/08/21 00:35:11;;;;;;;1.80;0.63;;;15.60;99.90;;;;;;5098280;28;20036;-74
2022/08/21 00:37:37;;;;;;;2.03;0.65;;;15.60;99.90;;;;;;5104358;28;20032;-74
2022/08/21 00:40:05;;;;;;;1.35;0.70;;;15.60;99.90;;;;;;5104154;28;20434;-74
2022/08/21 00:42:31;;;;;;;1.63;0.77;;;15.50;99.90;;;;;;5080994;28;20642;-75
2022/08/21 00:44:56;;;;;;;1.45;0.75;;;15.50;99.90;;;;;;5083466;28;20129;-74
2022/08/21 00:47:22;;;;;;;1.35;0.70;;;15.50;99.90;;;;;;5102703;28;20039;-75
2022/08/21 00:49:48;;;;;;;1.63;0.88;;;15.40;99.90;;;;;;5102531;28;20760;-75
2022/08/21 00:52:26;;;;;;;1.83;0.82;;;15.40;99.90;;;;;;5108437;28;20061;-75
2022/08/21 00:54:54;;;;;;;1.63;0.93;;;15.40;99.90;;;;;;5105426;28;20047;-75
2022/08/21 00:57:28;;;;;;;1.33;0.50;;;15.30;99.90;;;;;;5087206;28;20066;-74
2022/08/21 00:59:58;;;;;;;1.10;0.70;;;15.30;99.90;;;;;;5101908;28;20075;-74
2022/08/21 01:02:24;;;;;;;0.88;0.52;;;15.30;99.90;;;;;;5078292;28;20040;-75
2022/08/21 01:04:50;;;;;;;2.08;0.55;;;15.30;99.90;;;;;;5088212;28;20119;-74
2022/08/21 01:07:17;;;;;;;2.13;0.63;;;15.20;99.90;;;;;;5089853;28;20545;-75
2022/08/21 01:09:45;;;;;;;1.10;0.60;;;15.30;99.90;;;;;;5087339;28;20036;-74
2022/08/21 01:12:11;;;;;;;1.88;0.60;;;15.10;99.90;;;;;;5088888;28;20581;-74
2022/08/21 01:14:38;;;;;;;2.17;1.10;;;15.20;99.90;;;;;;5099100;28;20066;-75
2022/08/21 01:17:04;;;;;;;0.95;0.60;;;15.10;99.90;;;;;;5083652;28;20049;-74
2022/08/21 01:19:30;;;;;;;1.42;0.80;;;15.10;99.90;;;;;;5084774;28;20032;-75
2022/08/21 01:21:56;;;;;;;2.65;1.08;;;15.10;99.90;;;;;;5081138;28;20055;-75
2022/08/21 01:24:22;;;;;;;0.95;0.50;;;15.00;99.90;;;;;;5083345;28;20024;-74
2022/08/21 01:26:50;;;;;;;1.55;0.68;;;15.00;99.90;;;;;;5045505;28;20040;-74
2022/08/21 01:29:43;;;;;;;1.35;0.95;;;15.00;99.90;;;;;;5063892;28;20043;-74
2022/08/21 01:32:12;;;;;;;3.70;0.90;;;15.00;99.90;;;;;;5075759;28;20040;-74
2022/08/21 01:34:40;;;;;;;2.03;0.80;;;15.00;99.90;;;;;;5064737;28;20041;-75
2022/08/21 01:37:06;;;;;;;1.05;0.85;;;15.00;99.90;;;;;;5041721;28;20037;-74
2022/08/21 01:39:33;;;;;;;1.38;0.80;;;15.00;99.90;;;;;;5029836;28;20037;-74
2022/08/21 01:41:59;;;;;;;2.03;1.13;;;14.90;99.90;;;;;;5040136;28;20040;-74
2022/08/21 01:44:25;;;;;;;1.65;0.90;;;14.90;99.90;;;;;;5082306;28;20037;-75
2022/08/21 01:46:51;;;;;;;1.85;0.98;;;14.90;99.90;;;;;;5080858;28;20032;-75
2022/08/21 01:49:17;;;;;;;1.67;0.70;;;14.90;99.90;;;;;;5073252;28;20480;-75
2022/08/21 01:51:43;;;;;;;2.35;1.40;;;14.80;99.90;;;;;;5079239;28;20438;-74
2022/08/21 01:54:09;;;;;;;1.58;0.95;;;14.90;99.90;;;;;;5089137;28;20312;-74
2022/08/21 01:56:44;;;;;;;2.80;0.82;;;14.90;99.90;;;;;;5066317;28;20047;-74
2022/08/21 01:59:10;;;;;;;;;;;14.80;99.90;;;;;;5073918;28;20055;-74
2022/08/21 02:01:39;;;;;;;1.63;1.10;;;14.80;99.90;;;;;;5081436;28;19916;-75
2022/08/21 02:04:06;;;;;;;2.72;1.45;;;14.80;99.90;;;;;;5082008;28;20051;-75
2022/08/21 02:06:32;;;;;;;1.80;1.02;;;14.90;99.90;;;;;;5082824;28;20053;-74
2022/08/21 02:08:57;;;;;;;3.13;1.13;;;14.80;99.90;;;;;;5073256;28;20123;-74
2022/08/21 02:11:23;;;;;;;1.88;1.08;;;14.80;99.90;;;;;;5077322;28;20039;-74
2022/08/21 02:13:49;;;;;;;4.15;1.50;;;14.80;99.90;;;;;;5061419;28;20043;-74
2022/08/21 02:16:15;;;;;;;3.67;1.52;;;14.80;99.90;;;;;;5058772;28;20044;-74
2022/08/21 02:18:41;;;;;;;4.82;1.50;;;14.70;99.90;;;;;;5072361;28;20040;-74
2022/08/21 02:21:07;;;;;;;2.80;1.55;;;14.80;99.90;;;;;;5078808;28;20055;-75
2022/08/21 02:23:33;;;;;;;3.30;1.77;;;14.80;99.90;;;;;;5107180;28;20051;-74
2022/08/21 02:26:00;;;;;;;4.68;1.58;;;14.80;99.90;;;;;;5056418;28;20040;-74
2022/08/21 02:28:26;;;;;;;3.42;1.60;;;14.80;99.90;;;;;;5091705;28;20057;-74
2022/08/21 02:30:52;;;;;;;2.53;1.45;;;14.70;99.90;;;;;;5109328;28;20387;-74
2022/08/21 02:33:18;;;;;;;2.97;1.67;;;14.80;99.90;;;;;;5110082;28;20043;-75
2022/08/21 02:35:47;;;;;;;3.53;1.58;;;14.80;99.90;;;;;;5098900;28;20424;-74
2022/08/21 02:38:16;;;;;;;2.70;1.58;;;14.80;99.90;;;;;;5093995;28;20048;-75
2022/08/21 02:40:45;;;;;;;3.17;2.00;;;14.80;99.90;;;;;;5094185;28;20055;-74
2022/08/21 02:43:11;;;;;;;3.88;1.90;;;14.80;99.90;;;;;;5111433;28;20053;-74
2022/08/21 02:45:37;;;;;;;3.00;1.80;;;14.80;99.90;;;;;;5102821;27;20028;-74
2022/08/21 02:48:07;;;;;;;3.33;2.13;;;14.80;99.90;;;;;;5091775;28;20122;-74
2022/08/21 02:50:35;;;;;;;5.78;2.05;;;14.80;99.90;;;;;;5108908;28;20048;-74
2022/08/21 02:53:02;;;;;;;5.03;2.33;;;14.80;99.90;;;;;;5107161;28;20123;-74
2022/08/21 02:55:30;;;;;;;2.97;1.63;;;14.80;99.90;;;;;;5088506;28;20089;-74
2022/08/21 02:57:56;;;;;;;3.35;1.92;;;14.80;99.90;;;;;;5089678;28;20111;-74
2022/08/21 03:00:25;;;;;;;4.22;2.03;;;14.80;99.90;;;;;;5103859;28;20035;-74
2022/08/21 03:02:51;;;;;;;3.28;2.05;;;14.80;99.90;;;;;;5098717;28;20039;-74
2022/08/21 03:05:18;;;;;;;3.08;1.50;;;14.80;99.90;;;;;;5092270;28;20400;-74
2022/08/21 03:07:46;;;;;;;3.13;1.90;;;14.70;99.90;;;;;;5095512;28;20044;-74
2022/08/21 03:10:12;;;;;;;5.72;1.90;;;14.70;99.90;;;;;;5079866;28;20035;-74
2022/08/21 03:12:37;;;;;;;3.33;1.80;;;14.80;99.90;;;;;;5102204;28;20035;-74
2022/08/21 03:15:05;;;;;;;3.20;1.80;;;14.70;99.90;;;;;;5105308;28;20044;-74
2022/08/21 03:17:31;;;;;;;3.47;1.83;;;14.80;99.90;;;;;;5075673;28;20044;-74
2022/08/21 03:19:57;;;;;;;3.50;2.13;;;14.80;99.90;;;;;;5102101;28;20040;-74
2022/08/21 03:22:22;;;;;;;5.32;2.28;;;14.80;99.90;;;;;;5102697;28;20067;-75
2022/08/21 03:24:48;;;;;;;3.05;1.70;;;14.80;99.90;;;;;;5102513;28;20128;-74
2022/08/21 03:27:13;;;;;;;3.60;1.98;;;14.80;99.90;;;;;;5103329;28;20529;-74
2022/08/21 03:29:40;;;;;;;3.13;1.88;;;14.90;99.90;;;;;;5106827;28;20048;-74
2022/08/21 03:32:09;;;;;;;3.80;2.15;;;14.80;99.90;;;;;;5096889;28;20497;-74
2022/08/21 03:34:35;;;;;;;4.60;2.05;;;14.80;99.90;;;;;;5106863;28;20123;-74
2022/08/21 03:37:01;;;;;;;3.38;1.90;;;14.90;99.90;;;;;;5086169;28;20375;-74
2022/08/21 03:39:26;;;;;;;4.40;2.55;;;14.80;99.90;;;;;;5104583;28;20062;-74
2022/08/21 03:41:53;;;;;;;3.10;2.08;;;14.80;99.90;;;;;;5097649;28;20497;-74
2022/08/21 03:44:19;;;;;;;3.30;1.83;;;14.80;99.90;;;;;;5089197;28;20097;-74
2022/08/21 03:46:45;;;;;;;3.53;1.40;;;14.90;99.90;;;;;;5105327;28;20036;-75
2022/08/21 03:49:11;;;;;;;3.22;1.88;;;14.90;99.90;;;;;;5106433;28;20044;-74
2022/08/21 03:51:37;;;;;;;3.30;1.50;;;14.90;99.90;;;;;;5087263;28;20474;-74
2022/08/21 03:54:03;;;;;;;4.30;2.10;;;14.90;99.90;;;;;;5105539;28;20089;-74
2022/08/21 03:56:29;;;;;;;4.78;2.33;;;14.90;99.90;;;;;;5102389;28;20601;-74
2022/08/21 03:58:55;;;;;;;3.05;1.77;;;14.90;99.90;;;;;;5104361;28;20082;-74
2022/08/21 04:01:21;;;;;;;7.00;2.55;;;14.90;99.90;;;;;;5105616;28;20036;-74
2022/08/21 04:03:46;;;;;;;5.70;2.10;;;14.90;99.90;;;;;;5104664;28;20036;-74
2022/08/21 04:06:12;;;;;;;3.85;2.00;;;14.90;99.90;;;;;;5087941;28;20446;-74
2022/08/21 04:08:38;;;;;;;3.88;1.90;;;14.90;99.90;;;;;;5087872;28;20040;-75
2022/08/21 04:11:05;;;;;;;3.97;2.33;;;14.90;99.90;;;;;;5087629;28;20161;-74
2022/08/21 04:13:31;;;;;;;4.32;2.45;;;14.90;99.90;;;;;;5085166;28;20032;-74
2022/08/21 04:15:58;;;;;;;3.38;1.63;;;14.90;99.90;;;;;;5094113;28;20366;-74
2022/08/21 04:18:24;;;;;;;3.33;1.90;;;14.90;99.90;;;;;;5105562;28;20040;-75
2022/08/21 04:20:52;;;;;;;4.25;2.13;;;14.90;99.90;;;;;;5076777;28;20101;-74
2022/08/21 04:23:19;;;;;;;4.30;2.45;;;14.90;99.90;;;;;;5051437;28;20049;-74
2022/08/21 04:25:45;;;;;;;4.93;2.05;;;14.90;99.90;;;;;;5101344;27;20617;-74
2022/08/21 04:28:10;;;;;;;3.17;1.73;;;14.90;99.90;;;;;;5086778;28;20036;-74
2022/08/21 04:30:37;;;;;;;5.65;2.40;;;14.90;99.90;;;;;;5103747;28;20036;-74
2022/08/21 04:33:03;;;;;;;5.15;2.42;;;14.80;99.90;;;;;;5093646;28;20047;-74
2022/08/21 04:35:29;;;;;;;4.07;2.03;;;14.90;99.90;;;;;;5088913;28;20062;-74
2022/08/21 04:37:56;;;;;;;3.20;2.17;;;14.90;99.90;;;;;;5102917;28;20044;-74
2022/08/21 04:40:25;;;;;;;4.45;2.50;;;14.90;99.90;;;;;;5102315;28;20111;-74
2022/08/21 04:43:02;;;;;;;5.40;2.33;;;14.90;99.90;;;;;;5101682;28;20048;-74
2022/08/21 04:45:33;;;;;;;4.63;2.10;;;14.90;99.90;;;;;;5076862;28;20040;-74
2022/08/21 04:48:00;;;;;;;5.15;2.22;;;14.80;99.90;;;;;;5082653;28;20131;-74
2022/08/21 04:50:48;;;;;;;4.22;2.25;;;14.90;99.90;;;;;;5096941;28;20051;-74
2022/08/21 04:53:19;;;;;;;3.33;2.17;;;14.80;99.90;;;;;;5084501;28;20059;-74
2022/08/21 04:55:46;;;;;;;4.03;2.28;;;14.80;99.90;;;;;;5102436;28;20039;-74
2022/08/21 04:58:16;;;;;;;4.47;2.20;;;14.80;99.90;;;;;;5092243;28;20039;-74
2022/08/21 05:00:41;;;;;;;4.65;2.58;;;14.80;99.90;;;;;;5086439;28;20481;-74
2022/08/21 05:03:09;;;;;;;6.60;2.38;;;14.80;99.90;;;;;;5108321;28;20050;-74
2022/08/21 05:05:35;;;;;;;4.93;2.38;;;14.80;99.90;;;;;;5080302;28;20082;-74
2022/08/21 05:08:02;;;;;;;3.40;2.30;;;14.80;99.90;;;;;;5102364;28;20076;-74
2022/08/21 05:10:29;;;;;;;5.88;2.88;;;14.90;99.90;;;;;;5085244;28;20551;-74
2022/08/21 05:12:55;;;;;;;4.35;2.47;;;14.80;99.90;;;;;;5101548;28;20136;-74
2022/08/21 05:15:21;;;;;;;4.55;3.05;;;14.90;99.90;;;;;;5087195;28;20036;-74
2022/08/21 05:17:47;;;;;;;4.53;2.70;;;14.90;99.90;;;;;;5103413;28;20040;-74
2022/08/21 05:20:14;;;;;;;5.60;2.67;;;14.90;99.90;;;;;;5105926;28;20084;-74
2022/08/21 05:22:40;;;;;;;5.13;2.15;;;14.90;99.90;;;;;;5101235;28;20790;-74
2022/08/21 05:25:08;;;;;;;4.40;2.15;;;14.90;99.90;;;;;;5094373;28;20127;-74
2022/08/21 05:27:33;;;;;;;3.67;2.10;;;14.90;99.90;;;;;;5086802;28;20044;-74
2022/08/21 05:29:59;;;;;;;7.32;2.78;;;14.90;99.90;;;;;;5094979;28;20506;-74
2022/08/21 05:32:25;;;;;;;4.55;2.55;;;14.90;99.90;;;;;;5108048;28;20066;-74
2022/08/21 05:34:50;;;;;;;5.78;2.90;;;14.90;99.90;;;;;;5103145;28;20118;-74
2022/08/21 05:37:16;;;;;;;4.43;2.40;;;15.00;99.90;;;;;;5091501;28;20056;-74
2022/08/21 05:39:42;;;;;;;8.43;2.47;;;14.90;99.90;;;;;;5101580;28;20489;-74
2022/08/21 05:42:08;;;;;;;5.18;2.65;;;15.00;99.90;;;;;;5091144;28;20470;-74
2022/08/21 05:44:33;;;;;;;5.13;2.38;;;15.00;99.90;;;;;;5103459;28;20040;-74
2022/08/21 05:47:10;;;;;;;3.88;2.00;;;15.00;99.90;;;;;;5064056;28;20048;-74
2022/08/21 05:49:36;;;;;;;4.97;2.33;;;15.00;99.90;;;;;;5106086;28;20043;-74
2022/08/21 05:52:03;;;;;;;3.03;2.22;;;15.10;99.90;;;;;;5092566;28;20040;-74
2022/08/21 05:54:30;;;;;;;7.15;2.80;;;15.00;99.90;;;;;;5084558;28;20537;-73
2022/08/21 05:56:56;;;;;;;5.57;2.40;;;15.10;99.90;;;;;;5085514;28;20110;-74
2022/08/21 05:59:22;;;;;;;4.18;2.40;;;15.10;99.90;;;;;;5105383;28;20094;-74
2022/08/21 06:01:48;;;;;;;4.40;2.13;;;15.10;99.90;;;;;;5091036;28;20088;-74
2022/08/21 06:04:14;;;;;;;5.28;2.22;;;15.10;99.90;;;;;;5102166;28;20048;-74
2022/08/21 06:06:40;;;;;;;6.38;2.20;;;15.20;99.90;;;;;;5093029;28;20115;-74
2022/08/21 06:09:05;;;;;;;4.32;2.13;;;15.20;99.90;;;;;;5092268;28;20044;-74
2022/08/21 06:11:32;;;;;;;6.40;2.50;;;15.30;99.90;;;;;;5104518;28;20074;-74
2022/08/21 06:13:59;;;;;;;4.28;2.30;;;15.30;99.90;;;;;;5106834;28;20047;-74
2022/08/21 06:16:25;;;;;;;5.30;1.95;;;15.30;99.90;;;;;;5086380;28;20521;-74
2022/08/21 06:18:51;;;;;;;3.22;1.90;;;15.30;99.90;;;;;;5068522;28;20439;-73
2022/08/21 06:21:17;;;;;;;4.65;2.22;;;15.40;99.90;;;;;;5098563;28;20062;-74
2022/08/21 06:23:43;;;;;;;4.63;1.88;;;15.40;99.90;;;;;;5099605;28;20531;-74
2022/08/21 06:26:11;;;;;;;3.50;1.50;;;15.50;99.90;;;;;;5086252;28;20044;-74
2022/08/21 06:28:37;;;;;;;6.57;2.63;;;15.50;99.90;;;;;;5106186;28;20040;-74
2022/08/21 06:31:19;;;;;;;3.15;1.73;;;15.60;99.90;;;;;;5108470;28;20043;-73
2022/08/21 06:33:44;;;;;;;7.55;2.10;;;15.60;99.90;;;;;;5082375;28;20040;-74
2022/08/21 06:36:10;;;;;;;4.00;2.65;;;15.70;99.90;;;;;;5088389;28;20217;-74
2022/08/21 06:38:37;;;;;;;2.95;1.65;;;15.70;99.90;;;;;;5107286;28;20414;-73
2022/08/21 06:41:03;;;;;;;2.85;1.67;;;15.80;99.90;;;;;;5078968;28;20147;-74
2022/08/21 06:43:29;;;;;;;3.25;1.80;;;15.80;99.90;;;;;;5079129;28;20536;-73
2022/08/21 06:45:55;;;;;;;5.25;2.08;;;15.90;99.90;;;;;;5093832;28;20114;-72
2022/08/21 06:48:20;;;;;;;3.67;1.67;;;16.00;99.90;;;;;;5103917;28;20032;-73
2022/08/21 06:50:47;;;;;;;2.97;1.63;;;16.10;99.90;;;;;;5102573;28;20040;-73
2022/08/21 06:53:15;;;;;;;3.50;1.63;;;16.20;99.90;;;;;;5072641;28;20537;-73
2022/08/21 06:55:42;;;;;;;3.50;1.77;;;16.30;99.90;;;;;;5082464;28;20039;-73
2022/08/21 06:58:08;;;;;;;2.75;1.40;;;16.30;99.90;;;;;;5107238;28;20567;-73
2022/08/21 07:00:35;;;;;;;3.95;2.00;;;16.50;99.90;;;;;;5102100;28;20046;-74
2022/08/21 07:03:01;;;;;;;4.40;1.90;;;16.60;99.90;;;;;;5093286;28;20303;-73
2022/08/21 07:05:29;;;;;;;2.97;1.58;;;16.70;99.90;;;;;;5069321;28;20035;-74
2022/08/21 07:07:55;;;;;;;3.95;1.50;;;16.70;99.90;;;;;;5079448;28;20040;-73
2022/08/21 07:10:20;;;;;;;2.65;1.35;;;16.90;99.90;;;;;;5087077;28;20051;-74
2022/08/21 07:12:46;;;;;;;4.30;2.00;;;17.00;99.90;;;;;;5089201;28;20036;-74
2022/08/21 07:15:12;;;;;;;4.40;1.40;;;17.00;99.90;;;;;;5103228;28;20044;-73
2022/08/21 07:17:37;;;;;;;3.58;1.90;;;17.00;99.90;;;;;;5101009;28;20449;-74
2022/08/21 07:20:06;;;;;;;4.80;1.63;;;17.20;99.90;;;;;;5089693;28;20048;-73
2022/08/21 07:22:32;;;;;;;2.92;1.33;;;17.30;99.90;;;;;;5087917;28;20497;-73
2022/08/21 07:24:57;;;;;;;7.20;1.30;;;17.30;99.90;;;;;;5106560;28;20122;-74
2022/08/21 07:27:23;;;;;;;2.50;1.20;;;17.40;99.90;;;;;;5072805;28;20039;-74
2022/08/21 07:29:48;;;;;;;2.47;1.50;;;17.50;99.90;;;;;;5090397;28;20044;-74
2022/08/21 07:32:14;;;;;;;3.03;1.13;;;17.50;99.90;;;;;;5089957;28;20139;-74
2022/08/21 07:34:41;;;;;;;1.55;0.80;;;17.60;99.90;;;;;;5088390;28;20052;-74
2022/08/21 07:37:06;;;;;;;2.92;1.10;;;17.60;99.90;;;;;;5088306;28;20493;-74
2022/08/21 07:39:32;;;;;;;2.50;0.90;;;17.70;99.90;;;;;;5105652;28;20058;-74
2022/08/21 07:41:57;;;;;;;2.65;1.40;;;17.80;99.90;;;;;;5088564;28;20397;-74
2022/08/21 07:44:23;;;;;;;2.05;1.17;;;17.90;99.90;;;;;;5107026;27;20116;-74
2022/08/21 07:46:49;;;;;;;2.30;0.88;;;18.00;99.90;;;;;;5082933;28;20036;-75
2022/08/21 07:49:14;;;;;;;3.83;1.20;;;18.00;99.90;;;;;;5099462;27;20504;-73
2022/08/21 07:51:40;;;;;;;2.63;1.25;;;18.10;99.90;;;;;;5096394;28;20119;-74
2022/08/21 07:54:06;;;;;;;3.20;1.23;;;18.20;99.90;;;;;;5094871;28;20423;-74
2022/08/21 07:56:32;;;;;;;2.25;0.95;;;18.20;99.90;;;;;;5101389;28;20044;-74
2022/08/21 07:58:57;;;;;;;3.08;1.00;;;18.30;99.90;;;;;;5096507;28;20548;-74
2022/08/21 08:01:24;;;;;;;2.60;0.80;;;18.30;99.90;;;;;;5088353;28;20033;-74
2022/08/21 08:03:49;;;;;;;1.58;0.70;;;18.40;99.90;;;;;;5086261;28;20035;-74
2022/08/21 08:06:18;;;;;;;3.28;1.08;;;18.50;99.90;;;;;;5084263;28;20402;-74
2022/08/21 08:08:44;;;;;;;2.63;1.33;;;18.60;99.90;;;;;;5084686;28;20032;-74
2022/08/21 08:11:10;;;;;;;4.63;1.20;;;18.60;99.90;;;;;;5086997;28;20032;-73
2022/08/21 08:13:45;;;;;;;2.92;1.27;;;18.70;99.90;;;;;;5093072;27;20070;-73
2022/08/21 08:16:11;;;;;;;2.10;0.88;;;18.70;99.90;;;;;;5079069;28;20035;-74
2022/08/21 08:18:38;;;;;;;2.88;1.10;;;18.70;99.90;;;;;;5073635;28;21248;-74
2022/08/21 08:21:04;;;;;;;1.92;0.93;;;18.80;99.90;;;;;;5073757;28;20065;-74
2022/08/21 08:23:30;;;;;;;4.43;1.08;;;18.80;99.90;;;;;;5079067;28;20489;-73
2022/08/21 08:25:56;;;;;;;4.45;0.98;;;18.90;99.90;;;;;;5093118;28;20032;-73
2022/08/21 08:28:22;;;;;;;2.05;1.00;;;18.90;99.90;;;;;;5083113;28;20035;-74
2022/08/21 08:30:49;;;;;;;1.40;0.90;;;18.90;99.90;;;;;;5088503;27;20042;-73
2022/08/21 08:33:16;;;;;;;2.60;0.90;;;19.00;99.90;;;;;;5077682;28;20074;-74
2022/08/21 08:35:46;;;;;;;2.38;0.70;;;19.10;99.90;;;;;;5087109;27;20464;-73
2022/08/21 08:38:12;;;;;;;2.08;1.00;;;19.10;99.90;;;;;;5090671;28;20047;-74
2022/08/21 08:41:14;;;;;;;2.92;1.10;;;19.20;99.90;;;;;;5092517;28;20040;-73
2022/08/21 08:43:47;;;;;;;1.63;0.80;;;19.20;99.90;;;;;;5094403;27;20118;-73
2022/08/21 08:46:18;;;;;;;1.50;0.73;;;19.30;99.90;;;;;;5083120;28;20043;-73
2022/08/21 08:48:58;;;;;;;1.80;0.85;;;19.30;99.90;;;;;;5092799;27;20039;-73
2022/08/21 08:51:42;;;;;;;2.47;1.10;;;19.30;99.90;;;;;;5077132;28;20121;-73
2022/08/21 08:54:12;;;;;;;1.50;0.93;;;19.40;99.90;;;;;;5086755;28;20151;-73
2022/08/21 08:56:39;;;;;;;2.45;0.98;;;19.50;99.90;;;;;;5081614;28;20409;-73
2022/08/21 08:59:15;;;;;;;1.25;0.77;;;19.50;99.90;;;;;;5079077;28;20725;-73
2022/08/21 09:01:41;;;;;;;2.85;1.13;;;19.50;99.90;;;;;;5083736;28;20036;-72
2022/08/21 09:04:11;;;;;;;2.20;1.05;;;19.60;99.90;;;;;;5079182;28;20059;-73
2022/08/21 09:07:08;;;;;;;1.77;0.70;;;19.60;99.90;;;;;;5078567;28;20044;-73
2022/08/21 09:09:36;;;;;;;1.83;0.88;;;19.60;99.90;;;;;;5092621;28;20433;-71
2022/08/21 09:12:16;;;;;;;2.45;0.88;;;19.70;99.90;;;;;;5083328;28;20133;-73
2022/08/21 09:15:08;;;;;;;1.35;0.82;;;19.70;99.90;;;;;;5059708;28;20472;-73
2022/08/21 09:18:04;;;;;;;4.07;0.80;;;19.80;99.90;;;;;;5067554;28;20516;-73
2022/08/21 09:20:54;;;;;;;3.55;0.80;;;19.80;99.90;;;;;;5097958;27;20039;-73
2022/08/21 09:23:36;;;;;;;2.00;0.68;;;19.80;99.90;;;;;;5087242;28;20421;-73
2022/08/21 09:26:06;;;;;;;1.90;0.68;;;19.80;99.90;;;;;;5089691;28;20246;-73
2022/08/21 09:28:34;;;;;;;1.23;0.70;;;19.80;99.90;;;;;;5084640;28;20122;-72
2022/08/21 09:31:11;;;;;;;1.48;0.77;;;19.80;99.90;;;;;;5079073;28;20812;-73
2022/08/21 09:33:37;;;;;;;3.47;0.70;;;19.80;99.90;;;;;;5091186;28;20032;-73
2022/08/21 09:36:04;;;;;;;2.10;0.50;;;19.80;99.90;;;;;;5076238;28;21381;-73
2022/08/21 09:38:36;;;;;;;1.20;0.60;;;19.90;99.90;;;;;;5075765;28;20058;-73
2022/08/21 09:41:08;;;;;;;1.17;0.68;;;19.90;99.90;;;;;;5079382;28;20028;-73
2022/08/21 09:43:35;;;;;;;2.55;0.63;;;19.90;99.90;;;;;;5087581;28;20040;-73
2022/08/21 09:46:19;;;;;;;1.48;0.50;;;20.00;99.90;;;;;;5078562;28;20130;-72
2022/08/21 09:48:48;;;;;;;2.13;0.70;;;19.90;99.90;;;;;;5075207;28;20734;-75
2022/08/21 09:51:20;;;;;;;1.17;0.35;;;20.00;99.90;;;;;;5075232;28;20509;-73
2022/08/21 09:54:04;;;;;;;1.20;0.43;;;20.00;99.90;;;;;;5077179;28;20050;-73
2022/08/21 09:59:33;;;;;;;2.70;0.60;;;20.10;99.90;;;;;;5075415;28;20065;-73
2022/08/21 10:02:01;;;;;;;3.03;0.40;;;20.10;99.90;;;;;;5075170;28;20134;-73
2022/08/21 10:04:33;;;;;;;1.48;0.40;;;20.20;99.90;;;;;;5080279;28;20028;-73
2022/08/21 10:07:19;;;;;;;0.80;0.45;;;20.20;99.90;;;;;;5084844;28;20042;-73
2022/08/21 10:09:45;;;;;;;0.88;0.40;;;20.30;99.90;;;;;;5088008;28;20044;-73
2022/08/21 10:12:32;;;;;;;2.80;0.40;;;20.30;99.90;;;;;;5081648;28;20382;-73
2022/08/21 10:15:16;;;;;;;2.92;0.50;;;20.40;99.90;;;;;;5076834;28;20417;-72
2022/08/21 10:18:20;;;;;;;2.03;0.85;;;20.40;99.90;;;;;;5079585;28;20035;-73
2022/08/21 10:21:10;;;;;;;0.90;0.50;;;20.40;99.90;;;;;;5094432;27;20666;-73
2022/08/21 10:24:05;;;;;;;2.03;0.40;;;20.40;99.90;;;;;;5080771;28;20500;-73
2022/08/21 10:26:57;;;;;;;1.25;0.50;;;20.40;99.90;;;;;;5084642;28;20067;-73
2022/08/21 10:29:45;;;;;;;2.03;0.77;;;20.50;99.90;;;;;;5085175;28;20047;-73
2022/08/21 10:32:38;;;;;;;3.28;0.45;;;20.70;99.90;;;;;;5080839;28;20032;-73
2022/08/21 10:35:30;;;;;;;2.88;0.70;;;20.90;99.90;;;;;;5079558;28;20040;-73
2022/08/21 10:38:25;;;;;;;5.47;0.50;;;21.00;99.90;;;;;;5064567;28;20421;-73
2022/08/21 10:41:15;;;;;;;3.08;0.43;;;21.00;99.90;;;;;;5086126;28;20083;-73
2022/08/21 10:44:14;;;;;;;1.15;0.60;;;21.00;99.90;;;;;;5075940;28;20375;-73
2022/08/21 10:46:46;;;;;;;3.38;0.82;;;21.10;99.90;;;;;;5087148;28;20127;-73
2022/08/21 10:49:43;;;;;;;2.50;0.60;;;21.10;99.90;;;;;;5100821;28;20028;-73
2022/08/21 10:52:36;;;;;;;3.50;0.60;;;21.10;99.90;;;;;;5097311;28;20044;-73
2022/08/21 10:55:25;;;;;;;2.10;0.63;;;21.20;99.90;;;;;;5095832;28;20043;-73
2022/08/21 10:58:02;;;;;;;2.97;0.40;;;21.20;99.80;;;;;;5093462;28;20032;-73
2022/08/21 11:00:41;;;;;;;1.10;0.52;;;21.10;99.90;;;;;;5083622;28;20040;-73
2022/08/21 11:03:18;;;;;;;1.05;0.55;;;21.00;99.90;;;;;;5092826;28;20993;-73
2022/08/21 11:05:54;;;;;;;1.25;0.65;;;21.00;99.90;;;;;;5079740;28;20066;-73
2022/08/21 11:08:26;;;;;;;1.98;0.43;;;21.00;99.90;;;;;;5091664;28;20176;-73
2022/08/21 11:11:00;;;;;;;1.95;0.60;;;21.10;99.90;;;;;;5088504;28;20043;-73
2022/08/21 11:13:51;;;;;;;0.73;0.40;;;21.20;99.90;;;;;;5073809;28;20346;-73
2022/08/21 11:16:40;;;;;;;1.90;0.52;;;21.30;99.50;;;;;;5089801;28;20080;-73
2022/08/21 11:19:06;;;;;;;1.52;0.60;;;21.30;99.90;;;;;;5079752;28;20047;-73
2022/08/21 11:21:45;;;;;;;1.65;0.63;;;21.40;99.90;;;;;;5071660;28;20110;-72
2022/08/21 11:24:20;;;;;;;2.35;0.60;;;21.40;99.40;;;;;;5096464;28;20031;-73
2022/08/21 11:26:57;;;;;;;1.02;0.30;;;21.50;99.30;;;;;;5074764;28;20035;-72
2022/08/21 11:29:36;;;;;;;1.35;0.60;;;21.50;99.30;;;;;;5084759;28;20044;-73
2022/08/21 11:32:38;;;;;;;0.82;0.43;;;21.60;98.90;;;;;;5083434;28;20127;-73
2022/08/21 11:35:41;;;;;;;1.45;0.50;;;21.70;98.20;;;;;;5077253;28;20109;-73
2022/08/21 11:38:21;;;;;;;1.98;0.73;;;21.70;98.20;;;;;;5077695;28;20482;-73
2022/08/21 11:40:49;;;;;;;1.42;0.50;;;21.70;98.90;;;;;;5082651;28;20046;-73
2022/08/21 11:43:36;;;;;;;2.08;0.63;;;21.70;99.00;;;;;;5097920;28;20036;-73
2022/08/21 11:46:44;;;;;;;0.98;0.47;;;21.70;98.30;;;;;;5101004;28;20512;-73
2022/08/21 11:49:55;;;;;;;7.25;0.57;;;21.80;97.60;;;;;;5076364;28;20493;-72
2022/08/21 11:52:32;;;;;;;1.98;0.38;;;21.80;97.00;;;;;;5077661;28;20044;-72
2022/08/21 11:55:03;;;;;;;1.95;0.80;;;21.90;98.60;;;;;;5082111;28;20075;-73
2022/08/21 11:57:37;;;;;;;2.15;0.60;;;22.00;98.50;;;;;;5070264;28;20067;-73
2022/08/21 12:00:08;;;;;;;1.13;0.50;;;22.10;98.60;;;;;;5106150;28;20505;-73
2022/08/21 12:02:40;;;;;;;0.50;0.40;;;22.20;98.40;;;;;;5089066;28;20047;-73
2022/08/21 12:05:11;;;;;;;1.27;0.40;;;22.40;98.20;;;;;;5102699;28;20039;-73
2022/08/21 12:07:44;;;;;;;0.88;0.50;;;22.50;97.70;;;;;;5068175;28;20033;-73
2022/08/21 12:10:13;;;;;;;2.90;0.70;;;22.50;97.60;;;;;;5068880;28;20048;-73
2022/08/21 12:12:41;;;;;;;2.33;0.40;;;22.50;97.60;;;;;;5085360;28;20036;-73
2022/08/21 12:15:19;;;;;;;2.03;0.60;;;22.60;98.00;;;;;;5085448;28;20041;-73
2022/08/21 12:18:02;;;;;;;1.92;0.80;;;22.60;96.10;;;;;;5085756;28;20080;-73
2022/08/21 12:20:42;;;;;;;2.15;0.38;;;22.70;96.60;;;;;;5089255;28;20136;-73
2022/08/21 12:23:08;;;;;;;1.55;0.52;;;22.70;96.40;;;;;;5088087;28;20044;-73
2022/08/21 12:25:40;;;;;;;4.75;0.52;;;22.70;97.00;;;;;;5088419;28;20044;-73
2022/08/21 12:28:13;;;;;;;0.73;0.40;;;22.60;96.00;;;;;;5088591;28;20552;-73
2022/08/21 12:30:43;;;;;;;1.05;0.50;;;22.50;95.40;;;;;;5088458;28;20052;-73
2022/08/21 12:33:35;;;;;;;3.33;0.43;;;22.40;96.30;;;;;;5088374;28;20048;-73
2022/08/21 12:36:11;;;;;;;2.03;0.70;;;22.30;95.00;;;;;;5087589;28;20032;-73
2022/08/21 12:38:45;;;;;;;;;;;22.20;96.10;;;;;;5071293;28;20036;-73
2022/08/21 12:41:18;;;;;;;1.42;0.50;;;22.20;94.00;;;;;;5087868;28;20338;-73
2022/08/21 12:43:57;;;;;;;3.17;0.70;;;22.10;96.20;;;;;;5088655;28;20036;-73
2022/08/21 12:46:34;;;;;;;2.50;0.77;;;21.90;96.40;;;;;;5088475;28;20387;-73
2022/08/21 12:49:36;;;;;;;2.75;0.63;;;21.90;96.20;;;;;;5086055;28;20313;-73
2022/08/21 12:52:09;;;;;;;2.35;0.50;;;21.80;94.30;;;;;;5071717;28;20032;-73
2022/08/21 12:54:42;;;;;;;0.73;0.40;;;21.60;95.20;;;;;;5088873;28;20044;-73
2022/08/21 12:57:09;;;;;;;1.73;0.60;;;21.60;95.50;;;;;;5087638;28;20072;-73
2022/08/21 12:59:39;;;;;;;1.33;0.70;;;21.50;95.90;;;;;;5088203;28;20051;-73
2022/08/21 13:02:18;;;;;;;2.17;0.47;;;21.50;95.90;;;;;;5088297;28;20137;-73
2022/08/21 13:04:45;;;;;;;2.17;0.50;;;21.50;95.90;;;;;;5083705;28;20055;-73
2022/08/21 13:07:16;;;;;;;1.95;0.70;;;21.40;96.30;;;;;;5087982;28;20051;-73
2022/08/21 13:09:55;;;;;;;1.52;0.50;;;21.40;96.00;;;;;;5087219;28;20445;-73